PGUA/UAM METAR and TAF weather

Enter ICAO airport designator
Station Type Date Time Source
PGUA METAR 2019/10/22 16:55 UTC NOAA

PGUA 221655Z 15010KT 10SM FEW015 26/24 A2980 RMK AO2A SLP052


Station Type Date Time Source
PGUA Decoded METAR 2019/10/22 16:55 UTC NOAA

Andersen, Mariana Is, Andersen Air Force Base, GU, United States (PGUA) 13-35N 144-56E 187M
Oct 22, 2019 - 12:55 PM EDT / 2019.10.22 1655 UTC
Wind: from the SSE (150 degrees) at 12 MPH (10 KT):0
Visibility: 10 mile(s):0
Sky conditions: mostly clear
Temperature: 78 F (26 C)
Dew Point: 75 F (24 C)
Relative Humidity: 88%
Pressure (altimeter): 29.8 in. Hg (1009 hPa)
ob: PGUA 221655Z 15010KT 10SM FEW015 26/24 A2980 RMK AO2A SLP052
cycle: 17

Station Type Date Time Source
PGUA TAF 2019/10/22 10:06 UTC NOAA

TAF TAF PGUA 221000Z 2210/2316 19009KT 9999 SCT020 SCT150 QNH2976INS TX31/2303Z TN24/2215Z

Example: see airport list